sensor_id;sensor_type;location;lat;lon;timestamp;temperature;humidity
74224;SHT31;62585;49.706;18.216;2023-05-07T00:01:59;11.46;84.30
74224;SHT31;62585;49.706;18.216;2023-05-07T00:04:24;11.46;84.90
74224;SHT31;62585;49.706;18.216;2023-05-07T00:06:50;11.43;84.69
74224;SHT31;62585;49.706;18.216;2023-05-07T00:09:16;11.40;84.80
74224;SHT31;62585;49.706;18.216;2023-05-07T00:11:42;11.46;84.28
74224;SHT31;62585;49.706;18.216;2023-05-07T00:14:07;11.40;84.42
74224;SHT31;62585;49.706;18.216;2023-05-07T00:16:33;11.43;84.49
74224;SHT31;62585;49.706;18.216;2023-05-07T00:18:59;11.48;84.85
74224;SHT31;62585;49.706;18.216;2023-05-07T00:21:25;11.43;84.98
74224;SHT31;62585;49.706;18.216;2023-05-07T00:23:53;11.40;84.67
74224;SHT31;62585;49.706;18.216;2023-05-07T00:26:18;11.39;85.22
74224;SHT31;62585;49.706;18.216;2023-05-07T00:28:44;11.38;85.94
74224;SHT31;62585;49.706;18.216;2023-05-07T00:31:10;11.40;86.13
74224;SHT31;62585;49.706;18.216;2023-05-07T00:33:37;11.40;86.11
74224;SHT31;62585;49.706;18.216;2023-05-07T00:36:03;11.36;86.00
74224;SHT31;62585;49.706;18.216;2023-05-07T00:38:29;11.35;86.09
74224;SHT31;62585;49.706;18.216;2023-05-07T00:40:55;11.39;85.54
74224;SHT31;62585;49.706;18.216;2023-05-07T00:43:21;11.38;85.75
74224;SHT31;62585;49.706;18.216;2023-05-07T00:45:47;11.34;86.57
74224;SHT31;62585;49.706;18.216;2023-05-07T00:48:12;11.34;85.64
74224;SHT31;62585;49.706;18.216;2023-05-07T00:50:39;11.34;86.28
74224;SHT31;62585;49.706;18.216;2023-05-07T00:53:04;11.36;86.70
74224;SHT31;62585;49.706;18.216;2023-05-07T00:55:31;11.29;86.18
74224;SHT31;62585;49.706;18.216;2023-05-07T00:57:56;11.25;86.39
74224;SHT31;62585;49.706;18.216;2023-05-07T01:00:22;11.22;86.62
74224;SHT31;62585;49.706;18.216;2023-05-07T01:02:48;11.18;86.90
74224;SHT31;62585;49.706;18.216;2023-05-07T01:05:15;11.27;87.03
74224;SHT31;62585;49.706;18.216;2023-05-07T01:07:42;11.27;86.69
74224;SHT31;62585;49.706;18.216;2023-05-07T01:10:08;11.19;86.90
74224;SHT31;62585;49.706;18.216;2023-05-07T01:12:37;11.15;87.71
74224;SHT31;62585;49.706;18.216;2023-05-07T01:15:05;11.12;87.57
74224;SHT31;62585;49.706;18.216;2023-05-07T01:17:40;11.18;87.76
74224;SHT31;62585;49.706;18.216;2023-05-07T01:20:07;11.17;87.77
74224;SHT31;62585;49.706;18.216;2023-05-07T01:22:37;11.17;87.68
74224;SHT31;62585;49.706;18.216;2023-05-07T01:25:05;11.18;87.40
74224;SHT31;62585;49.706;18.216;2023-05-07T01:27:31;11.18;87.36
74224;SHT31;62585;49.706;18.216;2023-05-07T01:29:56;11.07;87.12
74224;SHT31;62585;49.706;18.216;2023-05-07T01:32:28;11.04;87.50
74224;SHT31;62585;49.706;18.216;2023-05-07T01:34:55;11.04;87.71
74224;SHT31;62585;49.706;18.216;2023-05-07T01:37:21;11.07;86.73
74224;SHT31;62585;49.706;18.216;2023-05-07T01:39:48;11.11;86.52
74224;SHT31;62585;49.706;18.216;2023-05-07T01:42:13;11.08;86.73
74224;SHT31;62585;49.706;18.216;2023-05-07T01:44:39;11.03;86.34
74224;SHT31;62585;49.706;18.216;2023-05-07T01:47:06;11.08;85.98
74224;SHT31;62585;49.706;18.216;2023-05-07T01:49:32;10.98;85.86
74224;SHT31;62585;49.706;18.216;2023-05-07T01:51:58;10.97;85.73
74224;SHT31;62585;49.706;18.216;2023-05-07T01:54:27;10.93;85.93
74224;SHT31;62585;49.706;18.216;2023-05-07T01:56:56;10.88;86.27
74224;SHT31;62585;49.706;18.216;2023-05-07T01:59:22;10.88;85.63
74224;SHT31;62585;49.706;18.216;2023-05-07T02:01:48;10.83;85.56
74224;SHT31;62585;49.706;18.216;2023-05-07T02:04:14;10.83;86.77
74224;SHT31;62585;49.706;18.216;2023-05-07T02:06:40;10.81;86.26
74224;SHT31;62585;49.706;18.216;2023-05-07T02:09:05;10.83;86.29
74224;SHT31;62585;49.706;18.216;2023-05-07T02:11:31;10.77;85.64
74224;SHT31;62585;49.706;18.216;2023-05-07T02:13:57;10.79;85.51
74224;SHT31;62585;49.706;18.216;2023-05-07T02:16:23;10.80;85.56
74224;SHT31;62585;49.706;18.216;2023-05-07T02:18:49;10.77;85.52
74224;SHT31;62585;49.706;18.216;2023-05-07T02:21:15;10.76;86.34
74224;SHT31;62585;49.706;18.216;2023-05-07T02:23:41;10.67;86.28
74224;SHT31;62585;49.706;18.216;2023-05-07T02:26:06;10.67;86.84
74224;SHT31;62585;49.706;18.216;2023-05-07T02:28:32;10.70;86.56
74224;SHT31;62585;49.706;18.216;2023-05-07T02:31:02;10.67;86.40
74224;SHT31;62585;49.706;18.216;2023-05-07T02:33:28;10.63;87.15
74224;SHT31;62585;49.706;18.216;2023-05-07T02:35:54;10.63;86.75
74224;SHT31;62585;49.706;18.216;2023-05-07T02:38:20;10.61;86.95
74224;SHT31;62585;49.706;18.216;2023-05-07T02:40:48;10.66;86.66
74224;SHT31;62585;49.706;18.216;2023-05-07T02:43:14;10.67;86.98
74224;SHT31;62585;49.706;18.216;2023-05-07T02:45:40;10.60;87.45
74224;SHT31;62585;49.706;18.216;2023-05-07T02:48:06;10.55;87.19
74224;SHT31;62585;49.706;18.216;2023-05-07T02:50:32;10.55;87.29
74224;SHT31;62585;49.706;18.216;2023-05-07T02:52:58;10.57;87.14
74224;SHT31;62585;49.706;18.216;2023-05-07T02:55:24;10.56;86.75
74224;SHT31;62585;49.706;18.216;2023-05-07T02:57:50;10.55;87.76
74224;SHT31;62585;49.706;18.216;2023-05-07T03:00:17;10.56;87.27
74224;SHT31;62585;49.706;18.216;2023-05-07T03:02:44;10.55;87.69
74224;SHT31;62585;49.706;18.216;2023-05-07T03:05:10;10.53;87.78
74224;SHT31;62585;49.706;18.216;2023-05-07T03:07:36;10.52;87.55
74224;SHT31;62585;49.706;18.216;2023-05-07T03:10:02;10.46;87.38
74224;SHT31;62585;49.706;18.216;2023-05-07T03:12:28;10.48;87.64
74224;SHT31;62585;49.706;18.216;2023-05-07T03:14:54;10.46;88.07
74224;SHT31;62585;49.706;18.216;2023-05-07T03:17:20;10.45;87.42
74224;SHT31;62585;49.706;18.216;2023-05-07T03:19:46;10.49;86.79
74224;SHT31;62585;49.706;18.216;2023-05-07T03:22:11;10.52;87.85
74224;SHT31;62585;49.706;18.216;2023-05-07T03:24:37;10.53;87.75
74224;SHT31;62585;49.706;18.216;2023-05-07T03:27:03;10.38;87.26
74224;SHT31;62585;49.706;18.216;2023-05-07T03:29:28;10.43;87.46
74224;SHT31;62585;49.706;18.216;2023-05-07T03:31:55;10.42;87.16
74224;SHT31;62585;49.706;18.216;2023-05-07T03:34:20;10.39;86.99
74224;SHT31;62585;49.706;18.216;2023-05-07T03:36:48;10.32;86.98
74224;SHT31;62585;49.706;18.216;2023-05-07T03:39:14;10.26;86.32
74224;SHT31;62585;49.706;18.216;2023-05-07T03:41:40;10.23;86.68
74224;SHT31;62585;49.706;18.216;2023-05-07T03:44:06;10.26;86.70
74224;SHT31;62585;49.706;18.216;2023-05-07T03:46:32;10.22;86.74
74224;SHT31;62585;49.706;18.216;2023-05-07T03:48:58;10.26;86.57
74224;SHT31;62585;49.706;18.216;2023-05-07T03:51:24;10.23;86.80
74224;SHT31;62585;49.706;18.216;2023-05-07T03:53:50;10.19;86.75
74224;SHT31;62585;49.706;18.216;2023-05-07T03:56:19;10.19;86.04
74224;SHT31;62585;49.706;18.216;2023-05-07T03:58:45;10.12;86.30
74224;SHT31;62585;49.706;18.216;2023-05-07T04:01:11;10.09;86.44
74224;SHT31;62585;49.706;18.216;2023-05-07T04:03:37;10.19;86.66
74224;SHT31;62585;49.706;18.216;2023-05-07T04:06:03;10.18;86.57
74224;SHT31;62585;49.706;18.216;2023-05-07T04:08:28;10.16;86.50
74224;SHT31;62585;49.706;18.216;2023-05-07T04:10:58;10.19;86.00
74224;SHT31;62585;49.706;18.216;2023-05-07T04:13:24;10.21;86.33
74224;SHT31;62585;49.706;18.216;2023-05-07T04:15:51;10.16;86.55
74224;SHT31;62585;49.706;18.216;2023-05-07T04:18:17;10.16;86.84
74224;SHT31;62585;49.706;18.216;2023-05-07T04:20:43;10.12;86.88
74224;SHT31;62585;49.706;18.216;2023-05-07T04:23:08;10.12;86.78
74224;SHT31;62585;49.706;18.216;2023-05-07T04:25:34;10.14;86.72
74224;SHT31;62585;49.706;18.216;2023-05-07T04:28:00;10.15;86.86
74224;SHT31;62585;49.706;18.216;2023-05-07T04:30:26;10.11;87.24
74224;SHT31;62585;49.706;18.216;2023-05-07T04:32:52;10.06;87.60
74224;SHT31;62585;49.706;18.216;2023-05-07T04:35:18;10.04;87.59
74224;SHT31;62585;49.706;18.216;2023-05-07T04:37:44;10.05;87.17
74224;SHT31;62585;49.706;18.216;2023-05-07T04:40:10;10.09;87.41
74224;SHT31;62585;49.706;18.216;2023-05-07T04:42:36;10.18;87.61
74224;SHT31;62585;49.706;18.216;2023-05-07T04:45:02;10.12;87.20
74224;SHT31;62585;49.706;18.216;2023-05-07T04:47:28;10.09;86.90
74224;SHT31;62585;49.706;18.216;2023-05-07T04:49:54;10.08;87.69
74224;SHT31;62585;49.706;18.216;2023-05-07T04:52:19;10.12;87.75
74224;SHT31;62585;49.706;18.216;2023-05-07T04:54:45;10.16;87.17
74224;SHT31;62585;49.706;18.216;2023-05-07T04:57:11;10.16;87.24
74224;SHT31;62585;49.706;18.216;2023-05-07T04:59:37;10.19;87.50
74224;SHT31;62585;49.706;18.216;2023-05-07T05:02:03;10.15;87.37
74224;SHT31;62585;49.706;18.216;2023-05-07T05:04:30;10.08;87.59
74224;SHT31;62585;49.706;18.216;2023-05-07T05:06:55;10.14;87.62
74224;SHT31;62585;49.706;18.216;2023-05-07T05:09:21;10.14;87.92
74224;SHT31;62585;49.706;18.216;2023-05-07T05:11:47;10.14;88.04
74224;SHT31;62585;49.706;18.216;2023-05-07T05:14:13;10.11;87.55
74224;SHT31;62585;49.706;18.216;2023-05-07T05:16:39;10.06;88.14
74224;SHT31;62585;49.706;18.216;2023-05-07T05:19:05;10.05;88.36
74224;SHT31;62585;49.706;18.216;2023-05-07T05:21:31;10.05;88.90
74224;SHT31;62585;49.706;18.216;2023-05-07T05:23:58;10.02;88.57
74224;SHT31;62585;49.706;18.216;2023-05-07T05:26:23;10.02;88.80
74224;SHT31;62585;49.706;18.216;2023-05-07T05:28:49;10.02;88.00
74224;SHT31;62585;49.706;18.216;2023-05-07T05:31:16;9.98;88.95
74224;SHT31;62585;49.706;18.216;2023-05-07T05:33:42;10.02;88.20
74224;SHT31;62585;49.706;18.216;2023-05-07T05:36:11;10.05;88.49
74224;SHT31;62585;49.706;18.216;2023-05-07T05:38:39;10.06;88.53
74224;SHT31;62585;49.706;18.216;2023-05-07T05:41:05;10.04;88.25
74224;SHT31;62585;49.706;18.216;2023-05-07T05:43:30;10.06;88.85
74224;SHT31;62585;49.706;18.216;2023-05-07T05:45:57;10.11;88.93
74224;SHT31;62585;49.706;18.216;2023-05-07T05:48:23;10.02;88.74
74224;SHT31;62585;49.706;18.216;2023-05-07T05:50:49;10.04;88.21
74224;SHT31;62585;49.706;18.216;2023-05-07T05:53:15;10.05;89.27
74224;SHT31;62585;49.706;18.216;2023-05-07T05:55:41;10.14;88.71
74224;SHT31;62585;49.706;18.216;2023-05-07T05:58:07;10.18;88.84
74224;SHT31;62585;49.706;18.216;2023-05-07T06:00:33;10.29;88.89
74224;SHT31;62585;49.706;18.216;2023-05-07T06:02:58;10.29;88.47
74224;SHT31;62585;49.706;18.216;2023-05-07T06:05:24;10.31;88.95
74224;SHT31;62585;49.706;18.216;2023-05-07T06:07:50;10.26;88.25
74224;SHT31;62585;49.706;18.216;2023-05-07T06:10:16;10.26;88.08
74224;SHT31;62585;49.706;18.216;2023-05-07T06:12:42;10.33;87.65
74224;SHT31;62585;49.706;18.216;2023-05-07T06:15:07;10.29;88.27
74224;SHT31;62585;49.706;18.216;2023-05-07T06:17:34;10.14;88.08
74224;SHT31;62585;49.706;18.216;2023-05-07T06:19:59;10.05;88.75
74224;SHT31;62585;49.706;18.216;2023-05-07T06:22:25;10.05;88.71
74224;SHT31;62585;49.706;18.216;2023-05-07T06:24:51;10.08;88.42
74224;SHT31;62585;49.706;18.216;2023-05-07T06:27:17;10.14;88.19
74224;SHT31;62585;49.706;18.216;2023-05-07T06:29:42;10.05;88.15
74224;SHT31;62585;49.706;18.216;2023-05-07T06:32:12;9.98;88.90
74224;SHT31;62585;49.706;18.216;2023-05-07T06:34:39;9.99;89.27
74224;SHT31;62585;49.706;18.216;2023-05-07T06:37:06;9.97;89.65
74224;SHT31;62585;49.706;18.216;2023-05-07T06:39:32;9.95;89.41
74224;SHT31;62585;49.706;18.216;2023-05-07T06:41:58;9.85;89.10
74224;SHT31;62585;49.706;18.216;2023-05-07T06:44:24;9.85;89.52
74224;SHT31;62585;49.706;18.216;2023-05-07T06:46:50;9.83;90.21
74224;SHT31;62585;49.706;18.216;2023-05-07T06:49:15;9.75;90.48
74224;SHT31;62585;49.706;18.216;2023-05-07T06:51:41;9.83;90.77
74224;SHT31;62585;49.706;18.216;2023-05-07T06:54:10;9.80;90.95
74224;SHT31;62585;49.706;18.216;2023-05-07T06:56:36;9.75;90.92
74224;SHT31;62585;49.706;18.216;2023-05-07T06:59:02;9.77;90.93
74224;SHT31;62585;49.706;18.216;2023-05-07T07:01:29;9.83;90.93
74224;SHT31;62585;49.706;18.216;2023-05-07T07:03:55;9.81;91.15
74224;SHT31;62585;49.706;18.216;2023-05-07T07:06:20;9.81;90.23
74224;SHT31;62585;49.706;18.216;2023-05-07T07:08:46;9.85;91.19
74224;SHT31;62585;49.706;18.216;2023-05-07T07:11:12;9.85;89.42
74224;SHT31;62585;49.706;18.216;2023-05-07T07:13:38;9.80;89.00
74224;SHT31;62585;49.706;18.216;2023-05-07T07:16:04;9.85;89.90
74224;SHT31;62585;49.706;18.216;2023-05-07T07:18:29;9.93;88.91
74224;SHT31;62585;49.706;18.216;2023-05-07T07:20:55;9.91;89.00
74224;SHT31;62585;49.706;18.216;2023-05-07T07:23:21;9.91;88.27
74224;SHT31;62585;49.706;18.216;2023-05-07T07:25:47;9.81;88.52
74224;SHT31;62585;49.706;18.216;2023-05-07T07:28:12;9.83;88.68
74224;SHT31;62585;49.706;18.216;2023-05-07T07:30:38;9.93;88.71
74224;SHT31;62585;49.706;18.216;2023-05-07T07:33:04;9.88;87.74
74224;SHT31;62585;49.706;18.216;2023-05-07T07:35:34;9.85;88.20
74224;SHT31;62585;49.706;18.216;2023-05-07T07:37:59;9.93;88.72
74224;SHT31;62585;49.706;18.216;2023-05-07T07:40:25;9.84;88.15
74224;SHT31;62585;49.706;18.216;2023-05-07T07:42:52;9.71;88.07
74224;SHT31;62585;49.706;18.216;2023-05-07T07:45:18;9.75;88.37
74224;SHT31;62585;49.706;18.216;2023-05-07T07:47:43;9.70;88.60
74224;SHT31;62585;49.706;18.216;2023-05-07T07:50:09;9.70;88.63
74224;SHT31;62585;49.706;18.216;2023-05-07T07:52:35;9.73;88.29
74224;SHT31;62585;49.706;18.216;2023-05-07T07:55:01;9.69;88.09
74224;SHT31;62585;49.706;18.216;2023-05-07T07:57:27;9.71;87.87
74224;SHT31;62585;49.706;18.216;2023-05-07T07:59:53;9.70;88.17
74224;SHT31;62585;49.706;18.216;2023-05-07T08:02:18;9.75;88.13
74224;SHT31;62585;49.706;18.216;2023-05-07T08:04:44;9.69;87.78
74224;SHT31;62585;49.706;18.216;2023-05-07T08:07:10;9.77;88.24
74224;SHT31;62585;49.706;18.216;2023-05-07T08:09:39;9.81;87.76
74224;SHT31;62585;49.706;18.216;2023-05-07T08:12:08;9.73;87.21
74224;SHT31;62585;49.706;18.216;2023-05-07T08:14:34;9.71;87.69
74224;SHT31;62585;49.706;18.216;2023-05-07T08:17:01;9.67;88.07
74224;SHT31;62585;49.706;18.216;2023-05-07T08:19:27;9.64;88.42
74224;SHT31;62585;49.706;18.216;2023-05-07T08:21:53;9.64;87.79
74224;SHT31;62585;49.706;18.216;2023-05-07T08:24:19;9.58;88.64
74224;SHT31;62585;49.706;18.216;2023-05-07T08:26:45;9.61;88.22
74224;SHT31;62585;49.706;18.216;2023-05-07T08:29:11;9.60;87.68
74224;SHT31;62585;49.706;18.216;2023-05-07T08:31:36;9.69;88.23
74224;SHT31;62585;49.706;18.216;2023-05-07T08:34:04;9.66;88.37
74224;SHT31;62585;49.706;18.216;2023-05-07T08:36:30;9.67;88.42
74224;SHT31;62585;49.706;18.216;2023-05-07T08:38:56;9.67;87.75
74224;SHT31;62585;49.706;18.216;2023-05-07T08:41:22;9.69;88.62
74224;SHT31;62585;49.706;18.216;2023-05-07T08:43:49;9.66;87.95
74224;SHT31;62585;49.706;18.216;2023-05-07T08:46:20;9.71;88.31
74224;SHT31;62585;49.706;18.216;2023-05-07T08:48:50;9.71;87.59
74224;SHT31;62585;49.706;18.216;2023-05-07T08:51:18;9.66;87.62
74224;SHT31;62585;49.706;18.216;2023-05-07T08:53:45;9.64;87.69
74224;SHT31;62585;49.706;18.216;2023-05-07T08:56:11;9.71;87.90
74224;SHT31;62585;49.706;18.216;2023-05-07T08:58:37;9.69;87.61
74224;SHT31;62585;49.706;18.216;2023-05-07T09:01:07;9.67;86.34
74224;SHT31;62585;49.706;18.216;2023-05-07T09:03:33;9.69;87.35
74224;SHT31;62585;49.706;18.216;2023-05-07T09:05:59;9.61;87.80
74224;SHT31;62585;49.706;18.216;2023-05-07T09:08:26;9.57;87.71
74224;SHT31;62585;49.706;18.216;2023-05-07T09:10:52;9.64;87.58
74224;SHT31;62585;49.706;18.216;2023-05-07T09:13:18;9.67;87.40
74224;SHT31;62585;49.706;18.216;2023-05-07T09:15:44;9.67;88.10
74224;SHT31;62585;49.706;18.216;2023-05-07T09:18:10;9.60;88.14
74224;SHT31;62585;49.706;18.216;2023-05-07T09:20:37;9.47;87.87
74224;SHT31;62585;49.706;18.216;2023-05-07T09:23:03;9.63;88.55
74224;SHT31;62585;49.706;18.216;2023-05-07T09:25:33;9.74;86.80
74224;SHT31;62585;49.706;18.216;2023-05-07T09:28:00;9.75;87.27
74224;SHT31;62585;49.706;18.216;2023-05-07T09:30:32;9.93;87.32
74224;SHT31;62585;49.706;18.216;2023-05-07T09:33:00;9.99;85.82
74224;SHT31;62585;49.706;18.216;2023-05-07T09:35:26;9.99;86.55
74224;SHT31;62585;49.706;18.216;2023-05-07T09:37:56;10.08;85.62
74224;SHT31;62585;49.706;18.216;2023-05-07T09:40:26;9.97;85.82
74224;SHT31;62585;49.706;18.216;2023-05-07T09:42:53;9.83;86.04
74224;SHT31;62585;49.706;18.216;2023-05-07T09:45:24;9.84;85.93
74224;SHT31;62585;49.706;18.216;2023-05-07T09:47:54;9.94;85.82
74224;SHT31;62585;49.706;18.216;2023-05-07T09:50:24;10.01;85.50
74224;SHT31;62585;49.706;18.216;2023-05-07T09:52:51;10.02;85.04
74224;SHT31;62585;49.706;18.216;2023-05-07T09:55:17;9.91;85.20
74224;SHT31;62585;49.706;18.216;2023-05-07T09:57:44;9.80;85.62
74224;SHT31;62585;49.706;18.216;2023-05-07T10:00:10;9.85;85.23
74224;SHT31;62585;49.706;18.216;2023-05-07T10:02:37;9.77;85.46
74224;SHT31;62585;49.706;18.216;2023-05-07T10:05:12;9.80;85.72
74224;SHT31;62585;49.706;18.216;2023-05-07T10:07:40;9.80;85.34
74224;SHT31;62585;49.706;18.216;2023-05-07T10:10:06;9.70;85.49
74224;SHT31;62585;49.706;18.216;2023-05-07T10:12:33;9.90;85.31
74224;SHT31;62585;49.706;18.216;2023-05-07T10:15:08;10.04;84.50
74224;SHT31;62585;49.706;18.216;2023-05-07T10:17:38;10.11;84.08
74224;SHT31;62585;49.706;18.216;2023-05-07T10:20:06;10.16;84.28
74224;SHT31;62585;49.706;18.216;2023-05-07T10:22:47;10.31;83.10
74224;SHT31;62585;49.706;18.216;2023-05-07T10:25:18;10.49;82.10
74224;SHT31;62585;49.706;18.216;2023-05-07T10:27:46;10.59;81.55
74224;SHT31;62585;49.706;18.216;2023-05-07T10:33:01;10.81;80.43
74224;SHT31;62585;49.706;18.216;2023-05-07T10:35:44;10.61;80.06
74224;SHT31;62585;49.706;18.216;2023-05-07T10:38:10;10.46;80.67
74224;SHT31;62585;49.706;18.216;2023-05-07T10:40:36;10.32;81.56
74224;SHT31;62585;49.706;18.216;2023-05-07T10:43:03;10.28;82.54
74224;SHT31;62585;49.706;18.216;2023-05-07T10:45:33;10.33;83.48
74224;SHT31;62585;49.706;18.216;2023-05-07T10:50:37;10.39;81.67
74224;SHT31;62585;49.706;18.216;2023-05-07T10:58:23;10.87;80.63
74224;SHT31;62585;49.706;18.216;2023-05-07T11:00:56;10.76;80.08
74224;SHT31;62585;49.706;18.216;2023-05-07T11:03:22;10.61;79.92
74224;SHT31;62585;49.706;18.216;2023-05-07T11:06:08;10.38;79.96
74224;SHT31;62585;49.706;18.216;2023-05-07T11:08:57;10.21;80.32
74224;SHT31;62585;49.706;18.216;2023-05-07T11:14:10;10.12;81.10
74224;SHT31;62585;49.706;18.216;2023-05-07T11:16:36;10.21;79.68
74224;SHT31;62585;49.706;18.216;2023-05-07T11:19:03;10.21;80.61
74224;SHT31;62585;49.706;18.216;2023-05-07T11:21:39;10.33;80.54
74224;SHT31;62585;49.706;18.216;2023-05-07T11:24:09;10.28;79.81
74224;SHT31;62585;49.706;18.216;2023-05-07T11:26:44;10.21;81.02
74224;SHT31;62585;49.706;18.216;2023-05-07T11:29:11;10.14;80.34
74224;SHT31;62585;49.706;18.216;2023-05-07T11:31:37;10.11;80.50
74224;SHT31;62585;49.706;18.216;2023-05-07T11:34:03;10.01;80.14
74224;SHT31;62585;49.706;18.216;2023-05-07T11:36:31;9.97;81.32
74224;SHT31;62585;49.706;18.216;2023-05-07T11:38:57;10.05;80.90
74224;SHT31;62585;49.706;18.216;2023-05-07T11:41:33;10.12;79.62
74224;SHT31;62585;49.706;18.216;2023-05-07T11:43:59;10.06;80.56
74224;SHT31;62585;49.706;18.216;2023-05-07T11:46:26;10.05;80.15
74224;SHT31;62585;49.706;18.216;2023-05-07T11:48:53;9.90;80.55
74224;SHT31;62585;49.706;18.216;2023-05-07T11:51:20;9.88;80.70
74224;SHT31;62585;49.706;18.216;2023-05-07T11:53:46;9.95;81.75
74224;SHT31;62585;49.706;18.216;2023-05-07T11:56:14;9.91;80.43
74224;SHT31;62585;49.706;18.216;2023-05-07T11:58:41;10.02;82.36
74224;SHT31;62585;49.706;18.216;2023-05-07T12:01:08;9.95;80.66
74224;SHT31;62585;49.706;18.216;2023-05-07T12:03:41;9.98;81.09
74224;SHT31;62585;49.706;18.216;2023-05-07T12:06:08;10.02;80.94
74224;SHT31;62585;49.706;18.216;2023-05-07T12:08:37;9.87;80.25
74224;SHT31;62585;49.706;18.216;2023-05-07T12:11:07;9.80;80.86
74224;SHT31;62585;49.706;18.216;2023-05-07T12:13:32;9.74;81.01
74224;SHT31;62585;49.706;18.216;2023-05-07T12:15:58;9.77;80.73
74224;SHT31;62585;49.706;18.216;2023-05-07T12:18:25;9.77;81.23
74224;SHT31;62585;49.706;18.216;2023-05-07T12:20:51;9.73;81.35
74224;SHT31;62585;49.706;18.216;2023-05-07T12:23:17;9.80;81.28
74224;SHT31;62585;49.706;18.216;2023-05-07T12:25:43;9.83;81.80
74224;SHT31;62585;49.706;18.216;2023-05-07T12:28:14;9.84;80.43
74224;SHT31;62585;49.706;18.216;2023-05-07T12:30:42;9.75;81.32
74224;SHT31;62585;49.706;18.216;2023-05-07T12:33:09;9.77;81.44
74224;SHT31;62585;49.706;18.216;2023-05-07T12:35:39;9.70;81.79
74224;SHT31;62585;49.706;18.216;2023-05-07T12:38:13;9.63;81.63
74224;SHT31;62585;49.706;18.216;2023-05-07T12:40:45;9.69;81.44
74224;SHT31;62585;49.706;18.216;2023-05-07T12:43:20;9.67;82.01
74224;SHT31;62585;49.706;18.216;2023-05-07T12:45:48;9.54;81.68
74224;SHT31;62585;49.706;18.216;2023-05-07T12:48:15;9.56;81.49
74224;SHT31;62585;49.706;18.216;2023-05-07T12:50:41;9.56;81.80
74224;SHT31;62585;49.706;18.216;2023-05-07T12:53:07;9.56;81.50
74224;SHT31;62585;49.706;18.216;2023-05-07T12:58:08;9.56;81.20
74224;SHT31;62585;49.706;18.216;2023-05-07T13:00:39;9.51;80.62
74224;SHT31;62585;49.706;18.216;2023-05-07T13:03:05;9.42;81.80
74224;SHT31;62585;49.706;18.216;2023-05-07T13:05:32;9.35;81.78
74224;SHT31;62585;49.706;18.216;2023-05-07T13:07:58;9.18;82.21
74224;SHT31;62585;49.706;18.216;2023-05-07T13:10:24;9.19;82.57
74224;SHT31;62585;49.706;18.216;2023-05-07T13:12:50;9.23;82.51
74224;SHT31;62585;49.706;18.216;2023-05-07T13:15:17;9.20;82.81
74224;SHT31;62585;49.706;18.216;2023-05-07T13:17:43;9.30;83.12
74224;SHT31;62585;49.706;18.216;2023-05-07T13:20:10;9.30;81.57
74224;SHT31;62585;49.706;18.216;2023-05-07T13:22:37;9.29;82.09
74224;SHT31;62585;49.706;18.216;2023-05-07T13:25:02;9.30;82.78
74224;SHT31;62585;49.706;18.216;2023-05-07T13:27:28;9.30;83.45
74224;SHT31;62585;49.706;18.216;2023-05-07T13:29:56;9.36;82.63
74224;SHT31;62585;49.706;18.216;2023-05-07T13:32:22;9.27;83.13
74224;SHT31;62585;49.706;18.216;2023-05-07T13:34:48;9.30;83.16
74224;SHT31;62585;49.706;18.216;2023-05-07T13:37:14;9.36;82.56
74224;SHT31;62585;49.706;18.216;2023-05-07T13:39:39;9.30;83.19
74224;SHT31;62585;49.706;18.216;2023-05-07T13:42:06;9.27;82.82
74224;SHT31;62585;49.706;18.216;2023-05-07T13:44:32;9.14;82.24
74224;SHT31;62585;49.706;18.216;2023-05-07T13:46:58;9.08;82.20
74224;SHT31;62585;49.706;18.216;2023-05-07T13:49:24;9.08;82.42
74224;SHT31;62585;49.706;18.216;2023-05-07T13:51:50;9.05;83.12
74224;SHT31;62585;49.706;18.216;2023-05-07T13:54:15;9.05;82.36
74224;SHT31;62585;49.706;18.216;2023-05-07T13:56:41;9.08;81.88
74224;SHT31;62585;49.706;18.216;2023-05-07T13:59:07;9.05;81.94
74224;SHT31;62585;49.706;18.216;2023-05-07T14:01:33;9.09;81.73
74224;SHT31;62585;49.706;18.216;2023-05-07T14:03:59;9.01;81.97
74224;SHT31;62585;49.706;18.216;2023-05-07T14:06:25;9.14;81.57
74224;SHT31;62585;49.706;18.216;2023-05-07T14:08:51;9.12;81.91
74224;SHT31;62585;49.706;18.216;2023-05-07T14:11:17;9.11;82.08
74224;SHT31;62585;49.706;18.216;2023-05-07T14:13:43;9.07;82.44
74224;SHT31;62585;49.706;18.216;2023-05-07T14:16:09;9.11;82.75
74224;SHT31;62585;49.706;18.216;2023-05-07T14:18:34;9.08;82.53
74224;SHT31;62585;49.706;18.216;2023-05-07T14:21:02;9.07;82.73
74224;SHT31;62585;49.706;18.216;2023-05-07T14:23:28;9.02;82.45
74224;SHT31;62585;49.706;18.216;2023-05-07T14:25:54;8.92;82.47
74224;SHT31;62585;49.706;18.216;2023-05-07T14:28:19;8.88;82.76
74224;SHT31;62585;49.706;18.216;2023-05-07T14:30:46;8.78;82.57
74224;SHT31;62585;49.706;18.216;2023-05-07T14:33:12;8.74;82.67
74224;SHT31;62585;49.706;18.216;2023-05-07T14:35:38;8.80;82.81
74224;SHT31;62585;49.706;18.216;2023-05-07T14:38:03;8.72;82.61
74224;SHT31;62585;49.706;18.216;2023-05-07T14:40:29;8.71;82.65
74224;SHT31;62585;49.706;18.216;2023-05-07T14:42:55;8.70;82.92
74224;SHT31;62585;49.706;18.216;2023-05-07T14:45:22;8.63;83.11
74224;SHT31;62585;49.706;18.216;2023-05-07T14:47:48;8.61;83.19
74224;SHT31;62585;49.706;18.216;2023-05-07T14:50:14;8.64;83.12
74224;SHT31;62585;49.706;18.216;2023-05-07T14:52:39;8.64;83.62
74224;SHT31;62585;49.706;18.216;2023-05-07T14:55:05;8.65;83.77
74224;SHT31;62585;49.706;18.216;2023-05-07T14:57:31;8.71;83.27
74224;SHT31;62585;49.706;18.216;2023-05-07T15:00:01;8.63;83.03
74224;SHT31;62585;49.706;18.216;2023-05-07T15:02:29;8.74;82.69
74224;SHT31;62585;49.706;18.216;2023-05-07T15:04:55;8.70;83.50
74224;SHT31;62585;49.706;18.216;2023-05-07T15:07:21;8.70;83.04
74224;SHT31;62585;49.706;18.216;2023-05-07T15:09:47;8.72;82.66
74224;SHT31;62585;49.706;18.216;2023-05-07T15:12:13;8.67;82.69
74224;SHT31;62585;49.706;18.216;2023-05-07T15:14:39;8.61;82.90
74224;SHT31;62585;49.706;18.216;2023-05-07T15:17:05;8.53;83.08
74224;SHT31;62585;49.706;18.216;2023-05-07T15:19:31;8.53;83.43
74224;SHT31;62585;49.706;18.216;2023-05-07T15:21:57;8.59;84.14
74224;SHT31;62585;49.706;18.216;2023-05-07T15:24:24;8.63;83.05
74224;SHT31;62585;49.706;18.216;2023-05-07T15:26:51;8.60;83.23
74224;SHT31;62585;49.706;18.216;2023-05-07T15:29:17;8.56;83.50
74224;SHT31;62585;49.706;18.216;2023-05-07T15:31:43;8.53;83.68
74224;SHT31;62585;49.706;18.216;2023-05-07T15:34:09;8.68;84.00
74224;SHT31;62585;49.706;18.216;2023-05-07T15:36:34;8.65;82.74